createdAt,value
2022-09-14T00:03:18.449Z,18.60
2022-09-14T00:08:02.057Z,18.60
2022-09-14T00:12:45.495Z,18.60
2022-09-14T00:17:30.394Z,18.70
2022-09-14T00:22:14.032Z,18.80
2022-09-14T00:26:57.407Z,18.70
2022-09-14T00:31:41.992Z,18.70
2022-09-14T00:36:31.404Z,18.70
2022-09-14T00:41:17.891Z,18.70
2022-09-14T00:46:02.873Z,18.70
2022-09-14T00:50:46.850Z,18.70
2022-09-14T00:55:31.701Z,18.70
2022-09-14T01:00:18.179Z,18.50
2022-09-14T01:05:01.663Z,18.50
2022-09-14T01:09:56.420Z,18.50
2022-09-14T01:14:45.588Z,18.80
2022-09-14T01:19:43.893Z,18.90
2022-09-14T01:24:30.073Z,18.90
2022-09-14T01:29:17.844Z,18.90
2022-09-14T01:34:08.542Z,19.00
2022-09-14T01:38:54.615Z,19.00
2022-09-14T01:43:41.613Z,19.00
2022-09-14T01:48:32.030Z,18.90
2022-09-14T01:53:19.173Z,18.90
2022-09-14T01:58:09.465Z,18.80
2022-09-14T02:02:56.395Z,18.60
2022-09-14T02:07:41.363Z,18.60
2022-09-14T02:12:25.939Z,18.70
2022-09-14T02:17:09.498Z,18.80
2022-09-14T02:21:53.155Z,18.80
2022-09-14T02:26:39.203Z,18.90
2022-09-14T02:31:29.008Z,18.90
2022-09-14T02:36:20.112Z,18.80
2022-09-14T02:41:10.142Z,18.60
2022-09-14T02:46:01.249Z,18.50
2022-09-14T02:50:51.735Z,18.40
2022-09-14T02:55:39.368Z,18.40
2022-09-14T03:00:23.074Z,18.40
2022-09-14T03:05:08.473Z,18.30
2022-09-14T03:09:51.869Z,18.30
2022-09-14T03:14:35.189Z,18.30
2022-09-14T03:19:18.779Z,18.20
2022-09-14T03:24:04.879Z,18.20
2022-09-14T03:28:51.894Z,18.20
2022-09-14T03:33:35.663Z,18.20
2022-09-14T03:38:19.716Z,18.20
2022-09-14T03:43:04.492Z,18.10
2022-09-14T03:47:48.301Z,18.10
2022-09-14T03:52:31.745Z,18.10
2022-09-14T03:57:15.115Z,18.10
2022-09-14T04:02:00.601Z,18.10
2022-09-14T04:06:44.162Z,17.80
2022-09-14T04:11:28.401Z,17.90
2022-09-14T04:16:12.271Z,17.80
2022-09-14T04:20:58.473Z,17.90
2022-09-14T04:25:41.886Z,18.00
2022-09-14T04:30:25.351Z,18.10
2022-09-14T04:35:09.344Z,18.20
2022-09-14T04:39:54.209Z,18.30
2022-09-14T04:44:37.651Z,18.40
2022-09-14T04:49:21.807Z,18.30
2022-09-14T04:54:06.697Z,18.30
2022-09-14T04:58:55.461Z,18.20
2022-09-14T05:03:40.234Z,18.20
2022-09-14T05:08:23.705Z,18.10
2022-09-14T05:13:07.072Z,18.10
2022-09-14T05:17:51.897Z,18.10
2022-09-14T05:22:35.307Z,18.10
2022-09-14T05:27:18.808Z,18.20
2022-09-14T05:32:02.310Z,18.20
2022-09-14T05:36:47.290Z,18.20
2022-09-14T05:41:30.739Z,18.20
2022-09-14T05:46:16.044Z,18.30
2022-09-14T05:51:00.487Z,18.30
2022-09-14T05:55:45.243Z,18.30
2022-09-14T06:00:29.690Z,18.30
2022-09-14T06:05:13.144Z,18.40
2022-09-14T06:09:56.573Z,18.50
2022-09-14T06:14:41.669Z,18.70
2022-09-14T06:19:25.121Z,18.90
2022-09-14T06:24:08.575Z,18.90
2022-09-14T06:28:52.364Z,19.10
2022-09-14T06:33:37.729Z,19.10
2022-09-14T06:38:21.096Z,19.40
2022-09-14T06:43:04.774Z,19.80
2022-09-14T06:47:48.288Z,20.10
2022-09-14T06:52:33.886Z,20.30
2022-09-14T06:57:17.489Z,20.30
2022-09-14T07:02:00.953Z,20.50
2022-09-14T07:06:47.344Z,20.70
2022-09-14T07:11:32.927Z,20.50
2022-09-14T07:16:17.225Z,20.50
2022-09-14T07:21:05.682Z,20.80
2022-09-14T07:25:49.596Z,20.90
2022-09-14T07:30:37.862Z,21.20
2022-09-14T07:35:21.513Z,20.90
2022-09-14T07:40:05.151Z,21.00
2022-09-14T07:44:48.607Z,21.20
2022-09-14T07:49:33.403Z,21.40
2022-09-14T07:54:20.114Z,21.80
2022-09-14T07:59:33.521Z,22.00
2022-09-14T08:04:09.558Z,22.20
2022-09-14T08:08:55.857Z,21.90
2022-09-14T08:13:41.049Z,22.20
2022-09-14T08:18:24.429Z,22.80
2022-09-14T08:23:07.880Z,22.60
2022-09-14T08:27:52.819Z,22.40
2022-09-14T08:32:36.236Z,22.20
2022-09-14T08:37:19.779Z,22.30
2022-09-14T08:42:06.204Z,22.60
2022-09-14T08:46:54.955Z,23.00
2022-09-14T08:51:38.518Z,23.20
2022-09-14T08:56:26.555Z,23.90
2022-09-14T09:01:16.334Z,24.70
2022-09-14T09:06:13.889Z,24.00
2022-09-14T09:11:01.642Z,23.90
2022-09-14T09:15:49.412Z,23.70
2022-09-14T09:20:35.588Z,24.20
2022-09-14T09:25:24.444Z,24.80
2022-09-14T09:30:13.059Z,25.60
2022-09-14T09:34:56.450Z,26.00
2022-09-14T09:39:39.936Z,25.90
2022-09-14T09:44:25.023Z,26.00
2022-09-14T09:49:19.520Z,26.20
2022-09-14T09:54:09.693Z,26.80
2022-09-14T09:58:53.403Z,27.60
2022-09-14T10:03:40.156Z,27.90
2022-09-14T10:08:23.630Z,28.90
2022-09-14T10:13:16.183Z,29.00
2022-09-14T10:18:09.641Z,29.50
2022-09-14T10:22:54.729Z,31.10
2022-09-14T10:27:42.056Z,32.70
2022-09-14T10:32:27.347Z,32.40
2022-09-14T10:37:34.033Z,32.70
2022-09-14T10:42:28.646Z,33.30
2022-09-14T10:47:42.078Z,33.30
2022-09-14T10:52:35.444Z,33.50
2022-09-14T10:57:27.188Z,33.10
2022-09-14T11:03:07.256Z,32.70
2022-09-14T11:08:05.820Z,30.60
2022-09-14T11:13:14.519Z,29.40
2022-09-14T11:18:14.725Z,28.40
2022-09-14T11:23:09.414Z,27.40
2022-09-14T11:27:58.205Z,27.10
2022-09-14T11:32:46.689Z,26.50
2022-09-14T11:37:39.325Z,26.10
2022-09-14T11:42:25.262Z,25.50
2022-09-14T11:47:14.177Z,25.30
2022-09-14T11:52:03.734Z,25.10
2022-09-14T11:56:50.763Z,25.10
2022-09-14T12:01:37.221Z,25.10
2022-09-14T12:07:00.264Z,25.10
2022-09-14T12:11:46.167Z,25.20
2022-09-14T12:16:33.909Z,25.40
2022-09-14T12:21:23.732Z,25.50
2022-09-14T12:26:37.237Z,25.70
2022-09-14T12:32:00.724Z,25.50
2022-09-14T12:37:21.767Z,25.40
2022-09-14T12:42:30.167Z,25.30
2022-09-14T12:47:59.209Z,25.30
2022-09-14T12:53:02.310Z,25.60
2022-09-14T12:57:52.838Z,25.90
2022-09-14T13:03:10.737Z,26.00
2022-09-14T13:07:57.431Z,25.40
2022-09-14T13:12:45.375Z,25.00
2022-09-14T13:17:28.842Z,24.40
2022-09-14T13:22:20.885Z,24.10
2022-09-14T13:27:07.371Z,23.90
2022-09-14T13:31:51.086Z,23.70
2022-09-14T13:36:37.981Z,23.60
2022-09-14T13:41:23.543Z,23.90
2022-09-14T13:46:10.178Z,24.80
2022-09-14T13:50:54.203Z,25.90
2022-09-14T13:55:45.220Z,27.20
2022-09-14T14:00:28.655Z,29.00
2022-09-14T14:05:25.154Z,30.10
2022-09-14T14:10:23.252Z,29.30
2022-09-14T14:15:28.634Z,26.90
2022-09-14T14:20:35.632Z,25.90
2022-09-14T14:25:20.886Z,25.00
2022-09-14T14:30:15.317Z,25.20
2022-09-14T14:34:59.012Z,24.70
2022-09-14T14:39:49.427Z,25.70
2022-09-14T14:44:34.031Z,26.30
2022-09-14T14:49:20.580Z,26.20
2022-09-14T14:54:04.118Z,26.00
2022-09-14T14:58:49.180Z,26.00
2022-09-14T15:03:32.829Z,25.30
2022-09-14T15:08:20.057Z,25.10
2022-09-14T15:13:03.544Z,24.80
2022-09-14T15:17:48.870Z,24.40
2022-09-14T15:22:32.289Z,23.90
2022-09-14T15:27:16.086Z,23.40
2022-09-14T15:31:59.739Z,23.40
2022-09-14T15:36:47.935Z,23.20
2022-09-14T15:41:31.271Z,22.80
2022-09-14T15:46:14.740Z,22.50
2022-09-14T15:51:00.830Z,21.50
2022-09-14T15:55:47.327Z,20.80
2022-09-14T16:00:30.747Z,20.70
2022-09-14T16:05:16.263Z,20.40
2022-09-14T16:09:59.727Z,20.20
2022-09-14T16:14:44.647Z,20.20
2022-09-14T16:19:28.299Z,20.00
2022-09-14T16:24:16.469Z,19.80
2022-09-14T16:29:00.840Z,19.70
2022-09-14T16:33:47.809Z,19.70
2022-09-14T16:38:31.688Z,19.60
2022-09-14T16:43:16.072Z,19.60
2022-09-14T16:47:59.494Z,19.60
2022-09-14T16:52:44.241Z,19.40
2022-09-14T16:57:29.957Z,19.30
2022-09-14T17:02:13.502Z,19.40
2022-09-14T17:06:57.255Z,19.50
2022-09-14T17:11:43.153Z,19.60
2022-09-14T17:16:28.210Z,19.60
2022-09-14T17:21:14.027Z,19.40
2022-09-14T17:25:58.076Z,19.30
2022-09-14T17:30:44.198Z,19.10
2022-09-14T17:35:27.916Z,19.00
2022-09-14T17:40:11.990Z,18.90
2022-09-14T17:44:55.430Z,18.80
2022-09-14T17:49:40.200Z,18.80
2022-09-14T17:54:31.762Z,18.80
2022-09-14T17:59:20.555Z,18.80
2022-09-14T18:04:06.457Z,18.70
2022-09-14T18:08:55.302Z,18.60
2022-09-14T18:13:42.588Z,18.40
2022-09-14T18:18:26.613Z,18.40
2022-09-14T18:23:10.429Z,18.40
2022-09-14T18:27:55.529Z,18.40
2022-09-14T18:32:39.666Z,18.40
2022-09-14T18:37:24.546Z,18.50
2022-09-14T18:42:08.704Z,18.50
2022-09-14T18:46:53.774Z,18.40
2022-09-14T18:51:37.699Z,18.30
2022-09-14T18:56:21.519Z,18.20
2022-09-14T19:01:06.675Z,18.30
2022-09-14T19:05:51.961Z,18.50
2022-09-14T19:10:38.778Z,18.60
2022-09-14T19:15:22.764Z,18.50
2022-09-14T19:20:08.646Z,18.60
2022-09-14T19:24:54.129Z,18.50
2022-09-14T19:29:38.088Z,18.60
2022-09-14T19:34:24.225Z,18.50
2022-09-14T19:39:08.801Z,18.40
2022-09-14T19:43:53.983Z,18.60
2022-09-14T19:48:38.476Z,18.40
2022-09-14T19:53:22.312Z,18.30
2022-09-14T19:58:06.279Z,18.20
2022-09-14T20:02:51.385Z,18.30
2022-09-14T20:07:35.257Z,18.30
2022-09-14T20:12:19.001Z,18.30
2022-09-14T20:17:02.718Z,18.20
2022-09-14T20:21:49.691Z,18.20
2022-09-14T20:26:33.747Z,18.10
2022-09-14T20:31:17.494Z,18.20
2022-09-14T20:36:02.122Z,18.20
2022-09-14T20:40:46.958Z,18.30
2022-09-14T20:45:30.387Z,18.20
2022-09-14T20:50:13.846Z,18.10
2022-09-14T20:54:57.484Z,18.10
2022-09-14T20:59:42.288Z,18.20
2022-09-14T21:04:27.249Z,18.10
2022-09-14T21:09:11.701Z,18.00
2022-09-14T21:13:57.664Z,18.00
2022-09-14T21:18:43.280Z,17.90
2022-09-14T21:23:26.718Z,17.90
2022-09-14T21:28:10.124Z,17.80
2022-09-14T21:32:53.725Z,17.70
2022-09-14T21:37:38.540Z,17.80
2022-09-14T21:42:22.175Z,17.90
2022-09-14T21:47:06.201Z,17.80
2022-09-14T21:51:50.350Z,17.70
2022-09-14T21:56:37.091Z,17.60
2022-09-14T22:01:21.987Z,17.70
2022-09-14T22:06:13.316Z,17.90
2022-09-14T22:11:04.824Z,17.70
2022-09-14T22:15:49.722Z,17.70
2022-09-14T22:20:33.155Z,17.40
2022-09-14T22:25:17.059Z,17.20
2022-09-14T22:30:00.751Z,17.10
2022-09-14T22:34:49.443Z,17.00
2022-09-14T22:39:35.588Z,17.00
2022-09-14T22:44:20.487Z,17.00
2022-09-14T22:49:03.924Z,17.10
2022-09-14T22:53:48.884Z,17.00
2022-09-14T22:58:32.729Z,17.00
2022-09-14T23:03:17.646Z,17.00
2022-09-14T23:08:01.179Z,16.90
2022-09-14T23:12:47.187Z,16.90
2022-09-14T23:17:30.632Z,16.90
2022-09-14T23:22:14.001Z,16.70
2022-09-14T23:26:57.439Z,16.70
2022-09-14T23:31:42.173Z,16.70
2022-09-14T23:36:26.543Z,16.80
2022-09-14T23:41:09.918Z,16.90
2022-09-14T23:45:53.413Z,17.00
2022-09-14T23:50:38.689Z,17.00
2022-09-14T23:55:22.711Z,17.10
